Time;durP1;ratioP1;P1;durP2;ratioP2;P2;SDS_P1;SDS_P2;PMS_P1;PMS_P2;Temp;Humidity;BMP_temperature;BMP_pressure;BME280_temperature;BME280_humidity;BME280_pressure;Samples;Min_cycle;Max_cycle;Signal;HPM_P1;HPM_P2
2023/08/02 00:01:35;;;;;;;;;;;26.10;99.90;;;;;;5135519;27;19970;-74
2023/08/02 00:04:01;;;;;;;;;;;26.10;99.90;;;;;;5135304;27;19903;-75
2023/08/02 00:06:27;;;;;;;;;;;26.10;99.90;;;;;;5133956;27;19988;-75
2023/08/02 00:08:53;;;;;;;;;;;26.10;99.90;;;;;;5135246;27;19903;-75
2023/08/02 00:11:19;;;;;;;;;;;26.10;99.90;;;;;;5135572;27;20008;-75
2023/08/02 00:13:45;;;;;;;;;;;26.10;99.90;;;;;;5135479;27;19991;-75
2023/08/02 00:16:11;;;;;;;;;;;26.10;99.90;;;;;;5135053;27;19943;-75
2023/08/02 00:18:36;;;;;;;;;;;26.00;99.90;;;;;;5134817;27;20244;-75
2023/08/02 00:21:02;;;;;;;;;;;26.10;99.90;;;;;;5134917;27;19904;-74
2023/08/02 00:23:28;;;;;;;;;;;26.10;99.90;;;;;;5134882;27;19910;-75
2023/08/02 00:25:54;;;;;;;;;;;26.00;99.90;;;;;;5135216;27;19907;-75
2023/08/02 00:28:20;;;;;;;;;;;25.90;99.90;;;;;;5134741;27;19903;-74
2023/08/02 00:30:46;;;;;;;;;;;25.90;99.90;;;;;;5135222;27;19925;-75
2023/08/02 00:33:12;;;;;;;;;;;26.00;99.90;;;;;;5134713;27;20006;-74
2023/08/02 00:35:42;;;;;;;;;;;26.00;99.90;;;;;;5133094;27;19928;-74
2023/08/02 00:38:08;;;;;;;;;;;25.90;99.90;;;;;;5134585;27;19994;-74
2023/08/02 00:40:34;;;;;;;;;;;25.90;99.90;;;;;;5134787;27;19965;-75
2023/08/02 00:42:59;;;;;;;;;;;25.90;99.90;;;;;;5134482;27;19914;-74
2023/08/02 00:45:25;;;;;;;;;;;25.90;99.90;;;;;;5134904;27;19925;-74
2023/08/02 00:47:51;;;;;;;;;;;25.90;99.90;;;;;;5135117;27;20288;-74
2023/08/02 00:50:17;;;;;;;;;;;25.80;99.90;;;;;;5134321;27;19950;-74
2023/08/02 00:52:42;;;;;;;;;;;25.80;99.90;;;;;;5134287;27;19934;-74
2023/08/02 00:55:08;;;;;;;;;;;25.80;99.90;;;;;;5133903;27;19903;-74
2023/08/02 00:57:34;;;;;;;;;;;25.80;99.90;;;;;;5134747;27;19932;-73
2023/08/02 01:00:00;;;;;;;;;;;25.90;99.90;;;;;;5134303;27;19910;-74
2023/08/02 01:02:26;;;;;;;;;;;25.90;99.90;;;;;;5134360;27;19907;-74
2023/08/02 01:04:51;;;;;;;;;;;25.90;99.90;;;;;;5134304;27;19909;-73
2023/08/02 01:07:23;;;;;;;;;;;25.90;99.90;;;;;;5134435;27;19939;-74
2023/08/02 01:09:49;;;;;;;;;;;25.90;99.90;;;;;;5134091;27;19939;-74
2023/08/02 01:12:16;;;;;;;;;;;25.90;99.90;;;;;;5134313;27;20323;-74
2023/08/02 01:14:44;;;;;;;;;;;25.90;99.90;;;;;;5134324;27;19908;-74
2023/08/02 01:17:11;;;;;;;;;;;25.90;99.90;;;;;;5132479;27;20309;-74
2023/08/02 01:19:37;;;;;;;;;;;26.00;99.90;;;;;;5134023;27;19903;-74
2023/08/02 01:22:04;;;;;;;;;;;26.10;99.90;;;;;;5134272;27;19903;-74
2023/08/02 01:24:36;;;;;;;;;;;26.00;99.90;;;;;;5133837;27;20012;-74
2023/08/02 01:27:07;;;;;;;;;;;26.00;99.90;;;;;;5134725;27;19926;-74
2023/08/02 01:29:33;;;;;;;;;;;26.00;99.90;;;;;;5133879;27;20319;-74
2023/08/02 01:32:00;;;;;;;;;;;25.90;99.90;;;;;;5134143;27;19914;-74
2023/08/02 01:34:26;;;;;;;;;;;26.00;99.90;;;;;;5133958;27;19914;-74
2023/08/02 01:36:52;;;;;;;;;;;26.00;99.90;;;;;;5134353;27;19912;-74
2023/08/02 01:39:18;;;;;;;;;;;26.00;99.90;;;;;;5134195;27;19986;-75
2023/08/02 01:41:43;;;;;;;;;;;26.00;99.90;;;;;;5133909;27;19918;-76
2023/08/02 01:44:09;;;;;;;;;;;25.90;99.90;;;;;;5132639;28;19903;-75
2023/08/02 01:46:35;;;;;;;;;;;25.90;99.90;;;;;;5133672;27;19935;-74
2023/08/02 01:49:01;;;;;;;;;;;26.00;99.90;;;;;;5132275;28;19946;-74
2023/08/02 01:51:27;;;;;;;;;;;25.90;99.90;;;;;;5133715;28;19903;-74
2023/08/02 01:53:52;;;;;;;;;;;25.80;99.90;;;;;;5134240;28;19961;-74
2023/08/02 01:56:18;;;;;;;;;;;25.80;99.90;;;;;;5133575;28;19994;-74
2023/08/02 01:58:44;;;;;;;;;;;25.70;99.90;;;;;;5134209;27;19911;-75
2023/08/02 02:01:10;;;;;;;;;;;25.70;99.90;;;;;;5133650;28;19910;-75
2023/08/02 02:03:35;;;;;;;;;;;25.70;99.90;;;;;;5133416;28;20339;-75
2023/08/02 02:06:01;;;;;;;;;;;25.70;99.90;;;;;;5133609;27;19903;-73
2023/08/02 02:08:27;;;;;;;;;;;25.70;99.90;;;;;;5137197;27;19940;-75
2023/08/02 02:10:54;;;;;;;;;;;25.70;99.90;;;;;;5137482;27;19903;-75
2023/08/02 02:13:20;;;;;;;;;;;25.70;99.90;;;;;;5137763;27;20240;-75
2023/08/02 02:15:46;;;;;;;;;;;25.70;99.90;;;;;;5137367;27;19903;-75
2023/08/02 02:18:12;;;;;;;;;;;25.70;99.90;;;;;;5137374;27;20267;-75
2023/08/02 02:20:38;;;;;;;;;;;25.70;99.90;;;;;;5137341;27;19990;-75
2023/08/02 02:23:03;;;;;;;;;;;25.60;99.90;;;;;;5137307;27;20186;-75
2023/08/02 02:25:29;;;;;;;;;;;25.60;99.90;;;;;;5137301;27;19907;-74
2023/08/02 02:27:55;;;;;;;;;;;25.60;99.90;;;;;;5137101;27;19903;-74
2023/08/02 02:30:21;;;;;;;;;;;25.50;99.90;;;;;;5137664;27;19986;-75
2023/08/02 02:32:47;;;;;;;;;;;25.50;99.90;;;;;;5136815;27;20015;-75
2023/08/02 02:35:13;;;;;;;;;;;25.50;99.90;;;;;;5135450;27;19997;-75
2023/08/02 02:37:39;;;;;;;;;;;25.50;99.90;;;;;;5137563;27;20241;-75
2023/08/02 02:40:06;;;;;;;;;;;25.50;99.90;;;;;;5136990;27;20395;-75
2023/08/02 02:42:31;;;;;;;;;;;25.40;99.90;;;;;;5136877;27;19997;-75
2023/08/02 02:44:57;;;;;;;;;;;25.40;99.90;;;;;;5136885;27;19961;-75
2023/08/02 02:47:23;;;;;;;;;;;25.40;99.90;;;;;;5136596;27;19953;-75
2023/08/02 02:49:49;;;;;;;;;;;25.40;99.90;;;;;;5136847;27;20315;-75
2023/08/02 02:52:15;;;;;;;;;;;25.50;99.90;;;;;;5136805;27;19918;-75
2023/08/02 02:54:40;;;;;;;;;;;25.50;99.90;;;;;;5135368;27;19903;-75
2023/08/02 02:57:06;;;;;;;;;;;25.50;99.90;;;;;;5137115;27;19911;-74
2023/08/02 02:59:32;;;;;;;;;;;25.50;99.90;;;;;;5136644;27;19910;-75
2023/08/02 03:01:58;;;;;;;;;;;25.50;99.90;;;;;;5136541;27;19904;-74
2023/08/02 03:04:25;;;;;;;;;;;25.50;99.90;;;;;;5136452;27;19907;-74
2023/08/02 03:06:51;;;;;;;;;;;25.50;99.90;;;;;;5135040;27;20300;-74
2023/08/02 03:09:16;;;;;;;;;;;25.50;99.90;;;;;;5135108;27;19907;-75
2023/08/02 03:11:42;;;;;;;;;;;25.50;99.90;;;;;;5134897;27;19922;-74
2023/08/02 03:14:08;;;;;;;;;;;25.50;99.90;;;;;;5135201;27;20337;-74
2023/08/02 03:16:34;;;;;;;;;;;25.40;99.90;;;;;;5136470;27;20357;-74
2023/08/02 03:19:00;;;;;;;;;;;25.40;99.90;;;;;;5135666;27;19903;-74
2023/08/02 03:21:26;;;;;;;;;;;25.30;99.90;;;;;;5136085;27;19956;-75
2023/08/02 03:23:51;;;;;;;;;;;25.30;99.90;;;;;;5134850;27;20407;-74
2023/08/02 03:26:17;;;;;;;;;;;25.30;99.90;;;;;;5136593;27;20332;-74
2023/08/02 03:28:43;;;;;;;;;;;25.40;99.90;;;;;;5136254;27;19947;-74
2023/08/02 03:31:09;;;;;;;;;;;25.40;99.90;;;;;;5136440;27;20189;-74
2023/08/02 03:33:35;;;;;;;;;;;25.50;99.90;;;;;;5135756;27;19915;-74
2023/08/02 03:36:00;;;;;;;;;;;25.50;99.90;;;;;;5135691;27;19915;-75
2023/08/02 03:38:26;;;;;;;;;;;25.50;99.90;;;;;;5135836;27;19903;-74
2023/08/02 03:40:52;;;;;;;;;;;25.50;99.90;;;;;;5136265;27;19904;-74
2023/08/02 03:43:18;;;;;;;;;;;25.50;99.90;;;;;;5135729;27;19907;-75
2023/08/02 03:45:43;;;;;;;;;;;25.50;99.90;;;;;;5136091;27;20341;-75
2023/08/02 03:48:09;;;;;;;;;;;25.60;99.90;;;;;;5135439;27;19903;-74
2023/08/02 03:50:35;;;;;;;;;;;25.60;99.90;;;;;;5135460;27;20209;-73
2023/08/02 03:53:01;;;;;;;;;;;25.60;99.90;;;;;;5135357;27;19918;-74
2023/08/02 03:55:27;;;;;;;;;;;25.60;99.90;;;;;;5135835;27;19925;-74
2023/08/02 03:57:52;;;;;;;;;;;25.60;99.90;;;;;;5135697;27;19957;-74
2023/08/02 04:00:18;;;;;;;;;;;25.60;99.90;;;;;;5135789;27;19914;-75
2023/08/02 04:02:44;;;;;;;;;;;25.60;99.90;;;;;;5135350;27;20002;-75
2023/08/02 04:05:10;;;;;;;;;;;25.60;99.90;;;;;;5135743;27;19903;-75
2023/08/02 04:07:36;;;;;;;;;;;25.60;99.90;;;;;;5135202;27;19903;-75
2023/08/02 04:10:02;;;;;;;;;;;25.60;99.90;;;;;;5133754;27;19910;-75
2023/08/02 04:12:28;;;;;;;;;;;25.60;99.90;;;;;;5135479;27;20386;-76
2023/08/02 04:14:54;;;;;;;;;;;25.50;99.90;;;;;;5134991;27;19904;-75
2023/08/02 04:17:20;;;;;;;;;;;25.50;99.90;;;;;;5134852;27;19994;-75
2023/08/02 04:19:45;;;;;;;;;;;25.50;99.90;;;;;;5135390;27;19987;-75
2023/08/02 04:22:11;;;;;;;;;;;25.50;99.90;;;;;;5134903;27;19904;-75
2023/08/02 04:24:37;;;;;;;;;;;25.40;99.90;;;;;;5135274;27;19954;-76
2023/08/02 04:27:03;;;;;;;;;;;25.40;99.90;;;;;;5134750;27;19994;-75
2023/08/02 04:29:29;;;;;;;;;;;25.40;99.90;;;;;;5132548;27;19979;-75
2023/08/02 04:31:55;;;;;;;;;;;25.40;99.90;;;;;;5134832;27;20365;-75
2023/08/02 04:34:21;;;;;;;;;;;25.40;99.90;;;;;;5133139;27;19955;-75
2023/08/02 04:36:47;;;;;;;;;;;25.40;99.90;;;;;;5135013;27;20455;-75
2023/08/02 04:39:15;;;;;;;;;;;25.40;99.90;;;;;;5134586;27;19903;-75
2023/08/02 04:41:40;;;;;;;;;;;25.50;99.90;;;;;;5135591;27;19903;-77
2023/08/02 04:44:06;;;;;;;;;;;25.50;99.90;;;;;;5135594;27;20289;-75
2023/08/02 04:46:32;;;;;;;;;;;25.60;99.90;;;;;;5134424;27;19903;-74
2023/08/02 04:48:58;;;;;;;;;;;25.70;99.90;;;;;;5134255;27;19903;-76
2023/08/02 04:51:24;;;;;;;;;;;25.70;99.90;;;;;;5134157;27;19910;-74
2023/08/02 04:53:50;;;;;;;;;;;25.70;99.90;;;;;;5134259;27;19911;-76
2023/08/02 04:56:17;;;;;;;;;;;25.70;99.90;;;;;;5134204;27;19996;-73
2023/08/02 04:58:43;;;;;;;;;;;25.70;99.90;;;;;;5134158;27;19907;-74
2023/08/02 05:01:09;;;;;;;;;;;25.70;99.90;;;;;;5134255;27;19965;-74
2023/08/02 05:03:35;;;;;;;;;;;25.70;99.90;;;;;;5132911;27;20355;-74
2023/08/02 05:06:02;;;;;;;;;;;25.80;99.90;;;;;;5134111;27;19904;-74
2023/08/02 05:08:35;;;;;;;;;;;25.80;99.90;;;;;;5134510;27;19910;-74
2023/08/02 05:11:03;;;;;;;;;;;25.90;99.90;;;;;;5134052;27;19946;-73
2023/08/02 05:13:29;;;;;;;;;;;25.80;99.90;;;;;;5133990;27;20304;-74
2023/08/02 05:15:56;;;;;;;;;;;25.80;99.90;;;;;;5134403;27;20363;-74
2023/08/02 05:18:21;;;;;;;;;;;25.90;99.90;;;;;;5133514;27;19972;-75
2023/08/02 05:20:47;;;;;;;;;;;26.20;99.90;;;;;;5132699;27;20344;-75
2023/08/02 05:23:13;;;;;;;;;;;26.30;99.90;;;;;;5134164;27;20356;-75
2023/08/02 05:25:39;;;;;;;;;;;27.00;99.90;;;;;;5132324;27;19903;-75
2023/08/02 05:28:04;;;;;;;;;;;28.40;99.90;;;;;;5133725;27;19964;-74
2023/08/02 05:30:31;;;;;;;;;;;29.80;99.90;;;;;;5133806;27;19904;-75
2023/08/02 05:32:57;;;;;;;;;;;30.70;98.90;;;;;;5133330;27;20035;-74
2023/08/02 05:35:23;;;;;;;;;;;31.10;98.10;;;;;;5133541;27;19938;-75
2023/08/02 05:37:49;;;;;;;;;;;32.70;96.30;;;;;;5133477;27;19911;-74
2023/08/02 05:40:15;;;;;;;;;;;33.70;94.70;;;;;;5131936;27;19971;-75
2023/08/02 05:42:41;;;;;;;;;;;34.00;93.30;;;;;;5136241;27;20347;-75
2023/08/02 05:45:07;;;;;;;;;;;33.60;93.30;;;;;;5138076;27;20265;-76
2023/08/02 05:47:33;;;;;;;;;;;33.70;92.90;;;;;;5137750;27;19903;-75
2023/08/02 05:49:59;;;;;;;;;;;33.40;92.60;;;;;;5137990;27;19998;-74
2023/08/02 05:52:25;;;;;;;;;;;34.10;92.10;;;;;;5137334;27;20006;-75
2023/08/02 05:54:50;;;;;;;;;;;34.60;91.70;;;;;;5138022;27;20366;-75
2023/08/02 05:57:16;;;;;;;;;;;35.50;90.80;;;;;;5137387;27;19903;-75
2023/08/02 05:59:42;;;;;;;;;;;36.00;90.10;;;;;;5136903;27;20348;-75
2023/08/02 06:02:08;;;;;;;;;;;36.50;89.50;;;;;;5136894;27;19947;-75
2023/08/02 06:04:35;;;;;;;;;;;36.20;87.80;;;;;;5137320;27;20371;-75
2023/08/02 06:07:00;;;;;;;;;;;35.50;88.40;;;;;;5136001;27;19904;-74
2023/08/02 06:09:26;;;;;;;;;;;36.00;87.90;;;;;;5137116;27;19903;-76
2023/08/02 06:11:52;;;;;;;;;;;36.90;85.80;;;;;;5137231;27;19907;-75
2023/08/02 06:14:18;;;;;;;;;;;37.60;84.10;;;;;;5137943;27;19907;-75
2023/08/02 06:16:44;;;;;;;;;;;38.00;82.80;;;;;;5135918;27;19904;-75
2023/08/02 06:19:09;;;;;;;;;;;37.20;83.00;;;;;;5136842;27;19914;-76
2023/08/02 06:21:36;;;;;;;;;;;36.70;82.70;;;;;;5137090;27;20371;-75
2023/08/02 06:24:01;;;;;;;;;;;36.30;83.40;;;;;;5135617;27;19911;-75
2023/08/02 06:26:28;;;;;;;;;;;37.30;82.40;;;;;;5137688;27;19904;-76
2023/08/02 06:28:54;;;;;;;;;;;36.90;81.60;;;;;;5136993;27;19956;-76
2023/08/02 06:31:20;;;;;;;;;;;36.90;80.90;;;;;;5137059;27;19903;-76
2023/08/02 06:33:46;;;;;;;;;;;35.80;82.20;;;;;;5136670;27;20022;-75
2023/08/02 06:36:12;;;;;;;;;;;36.80;81.90;;;;;;5135990;27;19965;-76
2023/08/02 06:38:37;;;;;;;;;;;36.90;80.50;;;;;;5136704;27;20239;-76
2023/08/02 06:41:03;;;;;;;;;;;38.10;80.40;;;;;;5136617;27;20359;-76
2023/08/02 06:43:29;;;;;;;;;;;38.80;79.60;;;;;;5136726;27;19903;-75
2023/08/02 06:45:57;;;;;;;;;;;40.90;77.00;;;;;;5136399;27;19954;-73
2023/08/02 06:48:24;;;;;;;;;;;42.80;74.20;;;;;;5136432;27;19903;-74
2023/08/02 06:50:50;;;;;;;;;;;43.60;71.70;;;;;;5136651;27;19981;-74
2023/08/02 06:53:16;;;;;;;;;;;44.20;69.20;;;;;;5135438;27;19911;-74
2023/08/02 06:55:42;;;;;;;;;;;44.60;68.30;;;;;;5134721;27;20377;-74
2023/08/02 06:58:08;;;;;;;;;;;44.90;66.00;;;;;;5136354;27;19996;-74
2023/08/02 07:00:34;;;;;;;;;;;44.90;64.90;;;;;;5135993;27;19903;-74
2023/08/02 07:03:00;;;;;;;;;;;43.40;65.00;;;;;;5136180;27;19904;-75
2023/08/02 07:05:28;;;;;;;;;;;42.80;65.60;;;;;;5136294;27;20356;-75
2023/08/02 07:07:58;;;;;;;;;;;41.90;65.60;;;;;;5136115;27;20212;-74
2023/08/02 07:10:24;;;;;;;;;;;41.00;67.00;;;;;;5135536;27;19907;-75
2023/08/02 07:12:51;;;;;;;;;;;42.10;65.50;;;;;;5135895;27;19911;-74
2023/08/02 07:15:17;;;;;;;;;;;43.60;63.30;;;;;;5134575;27;19910;-75
2023/08/02 07:17:44;;;;;;;;;;;44.70;61.50;;;;;;5135943;27;19950;-75
2023/08/02 07:20:13;;;;;;;;;;;44.40;59.90;;;;;;5136307;27;19910;-75
2023/08/02 07:22:39;;;;;;;;;;;43.90;59.30;;;;;;5135625;27;19948;-75
2023/08/02 07:25:05;;;;;;;;;;;44.10;60.00;;;;;;5136014;27;20003;-76
2023/08/02 07:27:32;;;;;;;;;;;43.10;61.70;;;;;;5135788;27;19949;-74
2023/08/02 07:29:58;;;;;;;;;;;41.80;64.10;;;;;;5135554;27;19903;-75
2023/08/02 07:32:25;;;;;;;;;;;40.40;66.70;;;;;;5134434;27;20386;-75
2023/08/02 07:34:51;;;;;;;;;;;40.10;67.60;;;;;;5134102;27;19997;-75
2023/08/02 07:37:18;;;;;;;;;;;39.60;67.70;;;;;;5135398;27;19911;-75
2023/08/02 07:39:44;;;;;;;;;;;39.30;68.60;;;;;;5135400;27;19910;-75
2023/08/02 07:42:10;;;;;;;;;;;39.10;69.00;;;;;;5135662;27;20271;-75
2023/08/02 07:44:37;;;;;;;;;;;38.90;69.60;;;;;;5134683;27;19918;-75
2023/08/02 07:47:03;;;;;;;;;;;38.40;69.80;;;;;;5134500;27;19960;-75
2023/08/02 07:49:30;;;;;;;;;;;38.60;69.30;;;;;;5135607;27;20354;-75
2023/08/02 07:51:56;;;;;;;;;;;38.50;69.00;;;;;;5135378;27;19918;-74
2023/08/02 07:54:22;;;;;;;;;;;37.90;69.30;;;;;;5135275;27;19994;-74
2023/08/02 07:56:47;;;;;;;;;;;36.90;70.50;;;;;;5133687;27;19998;-75
2023/08/02 07:59:13;;;;;;;;;;;36.60;71.00;;;;;;5135638;27;20325;-75
2023/08/02 08:01:42;;;;;;;;;;;36.90;71.30;;;;;;5135282;27;20002;-76
2023/08/02 08:04:08;;;;;;;;;;;37.00;70.90;;;;;;5134198;27;19938;-75
2023/08/02 08:06:34;;;;;;;;;;;36.70;71.20;;;;;;5135077;27;19958;-76
2023/08/02 08:08:59;;;;;;;;;;;36.50;71.90;;;;;;5135542;27;19975;-76
2023/08/02 08:11:29;;;;;;;;;;;37.00;72.10;;;;;;5134827;27;19998;-75
2023/08/02 08:13:55;;;;;;;;;;;36.60;73.20;;;;;;5134728;27;19929;-75
2023/08/02 08:16:20;;;;;;;;;;;36.80;73.60;;;;;;5133540;27;19914;-76
2023/08/02 08:18:46;;;;;;;;;;;36.60;74.10;;;;;;5134685;27;19994;-75
2023/08/02 08:21:12;;;;;;;;;;;36.80;74.60;;;;;;5134744;27;19925;-75
2023/08/02 08:23:39;;;;;;;;;;;36.90;73.90;;;;;;5134546;27;19910;-75
2023/08/02 08:26:09;;;;;;;;;;;37.10;74.00;;;;;;5134671;27;20006;-75
2023/08/02 08:28:35;;;;;;;;;;;36.70;74.80;;;;;;5134877;27;20158;-76
2023/08/02 08:31:02;;;;;;;;;;;37.00;74.10;;;;;;5133165;27;19903;-76
2023/08/02 08:33:28;;;;;;;;;;;36.70;74.60;;;;;;5132978;27;19911;-75
2023/08/02 08:35:54;;;;;;;;;;;36.60;74.60;;;;;;5134577;27;19915;-74
2023/08/02 08:38:20;;;;;;;;;;;36.40;74.80;;;;;;5134954;27;19918;-75
2023/08/02 08:40:55;;;;;;;;;;;36.50;75.10;;;;;;5134770;27;19908;-75
2023/08/02 08:43:28;;;;;;;;;;;36.20;75.40;;;;;;5134686;27;20382;-75
2023/08/02 08:45:54;;;;;;;;;;;36.60;76.10;;;;;;5134466;27;19903;-75
2023/08/02 08:48:21;;;;;;;;;;;36.80;73.80;;;;;;5134153;27;19904;-75
2023/08/02 08:50:48;;;;;;;;;;;36.80;75.10;;;;;;5132931;27;20286;-75
2023/08/02 08:53:18;;;;;;;;;;;36.80;74.50;;;;;;5134155;27;19911;-75
2023/08/02 08:55:47;;;;;;;;;;;36.60;74.00;;;;;;5134331;27;19903;-75
2023/08/02 08:58:12;;;;;;;;;;;36.50;73.20;;;;;;5134437;27;19910;-75
2023/08/02 09:00:38;;;;;;;;;;;36.70;72.10;;;;;;5134355;27;19903;-75
2023/08/02 09:03:04;;;;;;;;;;;36.80;72.10;;;;;;5133883;27;19903;-74
2023/08/02 09:05:30;;;;;;;;;;;37.10;71.80;;;;;;5134013;27;19904;-77
2023/08/02 09:08:00;;;;;;;;;;;37.40;70.30;;;;;;5133738;27;19979;-75
2023/08/02 09:10:26;;;;;;;;;;;36.50;70.60;;;;;;5132685;27;20003;-74
2023/08/02 09:12:52;;;;;;;;;;;36.40;75.90;;;;;;5134307;27;20010;-75
2023/08/02 09:15:18;;;;;;;;;;;36.70;78.20;;;;;;5133472;27;19972;-75
2023/08/02 09:17:48;;;;;;;;;;;36.70;80.00;;;;;;5133728;27;19911;-76
2023/08/02 09:20:15;;;;;;;;;;;36.70;80.20;;;;;;5134033;27;19903;-75
2023/08/02 09:22:40;;;;;;;;;;;36.60;77.80;;;;;;5133639;27;19903;-75
2023/08/02 09:25:11;;;;;;;;;;;36.80;75.80;;;;;;5134194;27;19914;-75
2023/08/02 09:27:37;;;;;;;;;;;36.90;79.70;;;;;;5134008;27;19907;-75
2023/08/02 09:30:03;;;;;;;;;;;36.70;82.00;;;;;;5134263;27;19903;-75
2023/08/02 09:32:29;;;;;;;;;;;36.70;78.30;;;;;;5133385;27;20279;-75
2023/08/02 09:34:58;;;;;;;;;;;36.80;78.90;;;;;;5132183;28;19912;-76
2023/08/02 09:37:29;;;;;;;;;;;36.80;84.90;;;;;;5134312;27;19926;-71
2023/08/02 09:39:55;;;;;;;;;;;36.50;87.00;;;;;;5132564;27;19909;-74
2023/08/02 09:42:23;;;;;;;;;;;36.30;86.90;;;;;;5133197;27;19903;-75
2023/08/02 09:44:59;;;;;;;;;;;36.30;88.40;;;;;;5132020;28;19918;-75
2023/08/02 09:47:28;;;;;;;;;;;35.90;90.80;;;;;;5133281;27;20001;-74
2023/08/02 09:50:04;;;;;;;;;;;35.50;90.90;;;;;;5133528;27;19903;-75
2023/08/02 09:52:30;;;;;;;;;;;35.50;91.60;;;;;;5121041;28;20272;-75
2023/08/02 09:54:56;;;;;;;;;;;35.50;92.40;;;;;;5111350;28;20405;-75
2023/08/02 09:57:24;;;;;;;;;;;35.50;93.00;;;;;;5111190;28;19946;-75
2023/08/02 09:59:51;;;;;;;;;;;35.50;93.30;;;;;;5112709;28;19943;-74
2023/08/02 10:02:19;;;;;;;;;;;35.50;93.90;;;;;;5112527;28;20279;-75
2023/08/02 10:04:45;;;;;;;;;;;35.30;93.90;;;;;;5111369;28;20386;-75
2023/08/02 10:07:12;;;;;;;;;;;35.10;94.30;;;;;;5111591;28;19928;-77
2023/08/02 10:09:38;;;;;;;;;;;35.00;94.90;;;;;;5111601;28;19911;-76
2023/08/02 10:12:04;;;;;;;;;;;34.90;96.10;;;;;;5113400;28;20271;-76
2023/08/02 10:14:30;;;;;;;;;;;34.70;97.20;;;;;;5112880;28;20359;-75
2023/08/02 10:17:00;;;;;;;;;;;34.60;97.70;;;;;;5111577;28;19907;-76
2023/08/02 10:19:26;;;;;;;;;;;34.40;98.90;;;;;;5111663;28;19988;-77
2023/08/02 10:21:53;;;;;;;;;;;34.10;99.90;;;;;;5113326;28;19918;-75
2023/08/02 10:24:19;;;;;;;;;;;34.20;99.90;;;;;;5113433;28;19903;-76
2023/08/02 10:26:45;;;;;;;;;;;34.30;99.90;;;;;;5112937;28;19965;-76
2023/08/02 10:29:11;;;;;;;;;;;34.30;99.90;;;;;;5115836;28;19907;-75
2023/08/02 10:31:37;;;;;;;;;;;34.40;99.90;;;;;;5116524;28;19904;-75
2023/08/02 10:34:22;;;;;;;;;;;34.20;99.90;;;;;;5116289;28;20010;-75
2023/08/02 10:36:55;;;;;;;;;;;34.10;99.90;;;;;;5116556;28;19912;-75
2023/08/02 10:39:41;;;;;;;;;;;34.10;99.90;;;;;;5115952;28;19915;-75
2023/08/02 10:42:07;;;;;;;;;;;34.10;99.90;;;;;;5115147;28;19994;-75
2023/08/02 10:44:34;;;;;;;;;;;34.10;99.90;;;;;;5114907;28;19973;-75
2023/08/02 10:47:18;;;;;;;;;;;34.20;99.90;;;;;;5116508;28;19950;-75
2023/08/02 10:49:44;;;;;;;;;;;34.20;99.90;;;;;;5116084;28;19911;-75
2023/08/02 10:52:25;;;;;;;;;;;34.20;99.90;;;;;;5114246;28;19916;-74
2023/08/02 10:55:04;;;;;;;;;;;34.00;99.90;;;;;;5116241;28;19987;-75
2023/08/02 10:57:30;;;;;;;;;;;33.10;99.90;;;;;;5115826;27;20274;-74
2023/08/02 10:59:56;;;;;;;;;;;33.20;99.90;;;;;;5116047;28;20452;-75
2023/08/02 11:02:25;;;;;;;;;;;33.30;99.90;;;;;;5115512;28;19972;-75
2023/08/02 11:04:51;;;;;;;;;;;33.30;99.90;;;;;;5116129;28;20251;-75
2023/08/02 11:07:21;;;;;;;;;;;33.40;99.90;;;;;;5115914;28;19911;-75
2023/08/02 11:09:48;;;;;;;;;;;33.50;99.90;;;;;;5115685;28;19994;-75
2023/08/02 11:12:14;;;;;;;;;;;33.50;99.90;;;;;;5116038;28;19908;-75
2023/08/02 11:14:41;;;;;;;;;;;33.50;99.90;;;;;;5114175;28;19907;-75
2023/08/02 11:17:07;;;;;;;;;;;33.40;99.90;;;;;;5115699;28;19907;-75
2023/08/02 11:19:34;;;;;;;;;;;33.10;99.90;;;;;;5115051;27;19915;-76
2023/08/02 11:21:59;;;;;;;;;;;33.20;99.90;;;;;;5113928;28;20256;-75
2023/08/02 11:24:26;;;;;;;;;;;33.10;99.90;;;;;;5113941;28;19919;-75
2023/08/02 11:26:59;;;;;;;;;;;33.40;99.90;;;;;;5115198;28;19911;-75
2023/08/02 11:29:25;;;;;;;;;;;33.30;99.90;;;;;;5115298;28;20008;-75
2023/08/02 11:31:54;;;;;;;;;;;33.40;99.90;;;;;;5115307;28;20332;-75
2023/08/02 11:34:20;;;;;;;;;;;33.30;99.90;;;;;;5114602;28;20766;-75
2023/08/02 11:36:47;;;;;;;;;;;33.30;99.90;;;;;;5115418;28;20379;-75
2023/08/02 11:39:13;;;;;;;;;;;33.60;99.90;;;;;;5114857;27;20354;-75
2023/08/02 11:41:39;;;;;;;;;;;33.50;99.90;;;;;;5115550;28;19904;-75
2023/08/02 11:44:13;;;;;;;;;;;33.30;99.90;;;;;;5113647;28;19904;-75
2023/08/02 11:46:40;;;;;;;;;;;33.20;99.90;;;;;;5115443;28;19911;-75
2023/08/02 11:49:07;;;;;;;;;;;33.30;99.90;;;;;;5114809;28;20348;-76
2023/08/02 11:51:38;;;;;;;;;;;33.30;99.90;;;;;;5115025;27;20348;-75
2023/08/02 11:54:04;;;;;;;;;;;33.40;99.90;;;;;;5115013;28;20301;-74
2023/08/02 11:56:30;;;;;;;;;;;33.10;99.90;;;;;;5113539;28;19923;-75
2023/08/02 11:58:56;;;;;;;;;;;32.80;99.90;;;;;;5115189;28;19904;-74
2023/08/02 12:01:22;;;;;;;;;;;32.80;99.90;;;;;;5114472;28;19927;-75
2023/08/02 12:03:54;;;;;;;;;;;32.30;99.90;;;;;;5113201;28;19908;-75
2023/08/02 12:06:19;;;;;;;;;;;32.10;99.90;;;;;;5114937;28;20351;-74
2023/08/02 12:08:59;;;;;;;;;;;32.20;99.90;;;;;;5114824;28;19957;-75
2023/08/02 12:11:26;;;;;;;;;;;32.30;99.90;;;;;;5113216;28;19904;-74
2023/08/02 12:13:52;;;;;;;;;;;32.30;99.90;;;;;;5113474;28;20416;-75
2023/08/02 12:16:18;;;;;;;;;;;32.50;99.90;;;;;;5114786;28;19903;-76
2023/08/02 12:18:50;;;;;;;;;;;32.80;99.90;;;;;;5112775;28;19968;-75
2023/08/02 12:21:16;;;;;;;;;;;33.20;99.90;;;;;;5114281;28;19953;-75
2023/08/02 12:23:42;;;;;;;;;;;33.30;99.90;;;;;;5113028;28;19908;-75
2023/08/02 12:26:08;;;;;;;;;;;33.60;99.90;;;;;;5114384;27;19904;-75
2023/08/02 12:28:44;;;;;;;;;;;33.70;99.90;;;;;;5114440;28;19904;-75
2023/08/02 12:31:10;;;;;;;;;;;33.70;99.90;;;;;;5114521;28;19910;-75
2023/08/02 12:33:37;;;;;;;;;;;33.70;99.90;;;;;;5112652;28;20342;-75
2023/08/02 12:36:03;;;;;;;;;;;33.80;99.90;;;;;;5113735;28;19915;-75
2023/08/02 12:38:30;;;;;;;;;;;33.80;99.90;;;;;;5113967;28;19903;-76
2023/08/02 12:40:59;;;;;;;;;;;33.80;99.90;;;;;;5113862;28;19904;-76
2023/08/02 12:43:26;;;;;;;;;;;33.90;99.90;;;;;;5114504;28;20268;-76
2023/08/02 12:45:52;;;;;;;;;;;33.80;99.90;;;;;;5114347;28;19918;-75
2023/08/02 12:48:18;;;;;;;;;;;33.90;99.90;;;;;;5113920;28;19907;-74
2023/08/02 12:50:44;;;;;;;;;;;33.60;99.90;;;;;;5113369;28;19911;-75
2023/08/02 12:53:10;;;;;;;;;;;33.50;99.90;;;;;;5113927;28;20359;-75
2023/08/02 12:55:35;;;;;;;;;;;33.60;99.90;;;;;;5114182;28;20263;-75
2023/08/02 12:58:01;;;;;;;;;;;33.80;99.90;;;;;;5113908;28;19948;-74
2023/08/02 13:00:27;;;;;;;;;;;33.80;99.90;;;;;;5114266;28;19904;-74
2023/08/02 13:02:53;;;;;;;;;;;34.00;99.90;;;;;;5113708;28;19926;-75
2023/08/02 13:05:19;;;;;;;;;;;34.20;99.90;;;;;;5112400;28;19951;-75
2023/08/02 13:07:45;;;;;;;;;;;34.40;99.90;;;;;;5114284;28;19904;-75
2023/08/02 13:10:11;;;;;;;;;;;34.40;99.90;;;;;;5113705;28;19904;-75
2023/08/02 13:12:37;;;;;;;;;;;34.60;99.90;;;;;;5113398;28;19915;-75
2023/08/02 13:15:03;;;;;;;;;;;34.50;99.90;;;;;;5114110;28;19904;-76
2023/08/02 13:17:31;;;;;;;;;;;34.60;99.90;;;;;;5113640;28;19903;-73
2023/08/02 13:19:57;;;;;;;;;;;34.80;99.90;;;;;;5113880;28;20331;-76
2023/08/02 13:22:23;;;;;;;;;;;34.90;99.90;;;;;;5114513;28;19904;-75
2023/08/02 13:24:49;;;;;;;;;;;35.10;99.90;;;;;;5112209;28;19904;-75
2023/08/02 13:27:15;;;;;;;;;;;35.20;99.90;;;;;;5113345;28;19903;-75
2023/08/02 13:29:42;;;;;;;;;;;35.20;99.90;;;;;;5113341;28;19922;-75
2023/08/02 13:32:08;;;;;;;;;;;35.10;99.90;;;;;;5113360;28;19912;-75
2023/08/02 13:34:34;;;;;;;;;;;35.20;99.90;;;;;;5113099;28;19993;-75
2023/08/02 13:37:00;;;;;;;;;;;34.90;99.90;;;;;;5113410;28;19904;-75
2023/08/02 13:39:26;;;;;;;;;;;34.90;99.90;;;;;;5113764;28;19986;-75
2023/08/02 13:41:52;;;;;;;;;;;34.90;99.90;;;;;;5113583;28;20045;-75
2023/08/02 13:44:18;;;;;;;;;;;34.90;99.90;;;;;;5113957;28;19986;-75
2023/08/02 13:46:44;;;;;;;;;;;34.80;99.90;;;;;;5113277;28;19943;-75
2023/08/02 13:49:10;;;;;;;;;;;34.80;99.90;;;;;;5113337;28;19956;-75
2023/08/02 13:51:36;;;;;;;;;;;34.90;99.90;;;;;;5113497;28;20384;-76
2023/08/02 13:54:02;;;;;;;;;;;34.80;99.90;;;;;;5113414;28;20403;-75
2023/08/02 13:56:27;;;;;;;;;;;34.80;99.90;;;;;;5113900;28;19922;-75
2023/08/02 13:58:53;;;;;;;;;;;34.80;99.90;;;;;;5112936;28;19904;-75
2023/08/02 14:01:19;;;;;;;;;;;34.60;99.90;;;;;;5111712;28;19993;-75
2023/08/02 14:03:45;;;;;;;;;;;34.40;99.90;;;;;;5117450;28;19925;-75
2023/08/02 14:06:10;;;;;;;;;;;34.20;99.90;;;;;;5117295;28;20411;-75
2023/08/02 14:08:36;;;;;;;;;;;34.20;99.90;;;;;;5115622;28;19915;-74
2023/08/02 14:11:02;;;;;;;;;;;34.50;99.90;;;;;;5117210;28;19903;-75
2023/08/02 14:13:28;;;;;;;;;;;34.60;99.90;;;;;;5116816;28;19911;-75